createdAt,value
2022-08-22T00:02:21.548Z,4.57
2022-08-22T00:02:53.246Z,3.93
2022-08-22T00:02:58.681Z,3.27
2022-08-22T00:07:37.115Z,4.37
2022-08-22T00:12:48.041Z,4.47
2022-08-22T00:18:00.487Z,4.57
2022-08-22T00:23:17.865Z,4.00
2022-08-22T00:28:26.288Z,4.00
2022-08-22T00:33:36.339Z,4.10
2022-08-22T00:38:45.218Z,3.97
2022-08-22T00:44:24.331Z,4.00
2022-08-22T00:50:04.252Z,3.93
2022-08-22T00:55:34.911Z,3.50
2022-08-22T01:00:44.996Z,3.33
2022-08-22T01:06:04.360Z,3.53
2022-08-22T01:11:31.474Z,4.00
2022-08-22T01:16:56.363Z,3.73
2022-08-22T01:22:41.874Z,4.50
2022-08-22T01:28:18.304Z,4.10
2022-08-22T01:34:16.505Z,4.23
2022-08-22T01:39:44.704Z,4.10
2022-08-22T01:45:10.765Z,4.33
2022-08-22T01:50:22.029Z,4.83
2022-08-22T01:55:31.924Z,4.20
2022-08-22T02:00:55.624Z,3.93
2022-08-22T02:06:07.358Z,4.20
2022-08-22T02:11:13.914Z,4.33
2022-08-22T02:16:25.364Z,3.87
2022-08-22T02:21:46.019Z,4.50
2022-08-22T02:27:04.322Z,4.20
2022-08-22T02:32:17.503Z,4.37
2022-08-22T02:37:33.933Z,4.57
2022-08-22T02:42:43.245Z,4.40
2022-08-22T02:47:58.040Z,4.07
2022-08-22T02:53:15.506Z,4.10
2022-08-22T02:58:27.642Z,3.87
2022-08-22T03:03:37.308Z,3.80
2022-08-22T03:09:01.115Z,4.07
2022-08-22T03:14:09.148Z,4.20
2022-08-22T03:19:19.446Z,4.27
2022-08-22T03:24:32.882Z,4.70
2022-08-22T03:29:40.392Z,5.80
2022-08-22T03:35:03.577Z,3.67
2022-08-22T03:40:25.769Z,3.90
2022-08-22T03:46:18.740Z,4.13
2022-08-22T03:51:34.010Z,3.73
2022-08-22T03:57:09.711Z,2.97
2022-08-22T04:02:43.287Z,2.83
2022-08-22T04:08:14.430Z,4.73
2022-08-22T04:13:38.567Z,2.80
2022-08-22T04:19:22.264Z,2.43
2022-08-22T04:24:43.830Z,3.00
2022-08-22T04:29:59.801Z,3.10
2022-08-22T04:35:10.190Z,3.20
2022-08-22T04:40:20.197Z,3.30
2022-08-22T04:45:27.565Z,3.60
2022-08-22T04:50:42.583Z,3.90
2022-08-22T04:55:57.720Z,4.53
2022-08-22T05:01:13.771Z,3.20
2022-08-22T05:06:21.649Z,4.77
2022-08-22T05:11:25.789Z,3.37
2022-08-22T05:16:34.666Z,3.37
2022-08-22T05:21:43.776Z,3.57
2022-08-22T05:26:53.387Z,3.50
2022-08-22T05:32:03.236Z,3.43
2022-08-22T05:37:14.259Z,3.13
2022-08-22T05:42:23.700Z,3.43
2022-08-22T05:47:36.335Z,4.00
2022-08-22T05:53:00.771Z,3.90
2022-08-22T05:58:22.018Z,4.27
2022-08-22T06:03:29.506Z,4.33
2022-08-22T06:08:38.835Z,5.17
2022-08-22T06:13:47.267Z,5.67
2022-08-22T06:18:52.797Z,5.10
2022-08-22T06:24:00.053Z,5.53
2022-08-22T06:29:04.435Z,5.40
2022-08-22T06:34:16.785Z,5.67
2022-08-22T06:39:24.408Z,5.87
2022-08-22T06:44:31.812Z,6.07
2022-08-22T06:49:36.993Z,5.30
2022-08-22T06:54:47.269Z,6.03
2022-08-22T06:59:50.928Z,6.10
2022-08-22T07:04:54.212Z,5.87
2022-08-22T07:09:58.957Z,5.73
2022-08-22T07:15:10.856Z,5.30
2022-08-22T07:20:24.032Z,5.20
2022-08-22T07:25:30.173Z,5.63
2022-08-22T07:30:45.922Z,5.67
2022-08-22T07:35:55.191Z,4.77
2022-08-22T07:41:07.264Z,4.47
2022-08-22T07:46:25.437Z,4.00
2022-08-22T07:51:35.859Z,3.90
2022-08-22T07:56:46.375Z,4.87
2022-08-22T08:01:53.929Z,3.60
2022-08-22T08:07:00.492Z,3.80
2022-08-22T08:12:06.942Z,4.10
2022-08-22T08:17:18.654Z,4.03
2022-08-22T08:22:26.421Z,5.00
2022-08-22T08:27:53.266Z,3.00
2022-08-22T08:33:25.050Z,3.30
2022-08-22T08:38:27.380Z,2.97
2022-08-22T08:43:43.680Z,4.00
2022-08-22T08:49:16.817Z,3.10
2022-08-22T08:54:56.185Z,2.40
2022-08-22T09:00:07.003Z,2.73
2022-08-22T09:05:40.513Z,3.33
2022-08-22T09:11:09.900Z,3.03
2022-08-22T09:16:37.070Z,2.10
2022-08-22T09:22:06.429Z,3.73
2022-08-22T09:27:24.473Z,2.50
2022-08-22T09:32:44.120Z,2.07
2022-08-22T09:37:59.542Z,1.43
2022-08-22T09:43:11.018Z,1.70
2022-08-22T09:48:32.071Z,3.40
2022-08-22T09:53:57.981Z,1.77
2022-08-22T09:59:04.368Z,2.27
2022-08-22T10:04:43.938Z,1.87
2022-08-22T10:09:57.713Z,3.13
2022-08-22T10:15:17.557Z,2.30
2022-08-22T10:20:29.316Z,3.87
2022-08-22T10:25:42.387Z,2.00
2022-08-22T10:30:58.033Z,2.53
2022-08-22T10:36:11.749Z,5.63
2022-08-22T10:41:25.952Z,2.73
2022-08-22T10:46:35.808Z,2.17
2022-08-22T10:51:47.669Z,2.57
2022-08-22T10:56:56.726Z,2.10
2022-08-22T11:02:22.303Z,3.53
2022-08-22T11:07:50.092Z,1.77
2022-08-22T11:13:06.688Z,2.57
2022-08-22T11:18:20.523Z,2.57
2022-08-22T11:23:37.349Z,3.00
2022-08-22T11:29:13.142Z,2.33
2022-08-22T11:34:32.229Z,2.13
2022-08-22T11:39:45.267Z,2.27
2022-08-22T11:44:55.516Z,2.37
2022-08-22T11:50:03.821Z,1.90
2022-08-22T11:55:34.503Z,2.60
2022-08-22T12:00:49.428Z,1.97
2022-08-22T12:05:56.731Z,4.10
2022-08-22T12:11:08.372Z,1.60
2022-08-22T12:16:17.670Z,1.67
2022-08-22T12:21:46.386Z,1.80
2022-08-22T12:27:18.319Z,1.70
2022-08-22T12:33:20.782Z,3.07
2022-08-22T12:38:38.078Z,2.13
2022-08-22T12:43:53.395Z,2.90
2022-08-22T12:49:16.445Z,2.73
2022-08-22T12:54:46.708Z,1.30
2022-08-22T12:59:55.158Z,2.30
2022-08-22T13:05:10.946Z,1.57
2022-08-22T13:10:45.849Z,1.40
2022-08-22T13:15:57.944Z,1.43
2022-08-22T13:21:05.146Z,2.00
2022-08-22T13:26:12.401Z,1.60
2022-08-22T13:31:39.113Z,2.33
2022-08-22T13:36:51.576Z,1.47
2022-08-22T13:41:58.283Z,2.30
2022-08-22T13:47:14.767Z,4.53
2022-08-22T13:52:29.658Z,1.50
2022-08-22T13:57:39.000Z,2.43
2022-08-22T14:02:59.918Z,1.90
2022-08-22T14:08:14.339Z,2.17
2022-08-22T14:13:36.688Z,1.90
2022-08-22T14:18:48.534Z,2.03
2022-08-22T14:23:53.884Z,3.13
2022-08-22T14:29:02.223Z,1.97
2022-08-22T14:34:11.856Z,1.93
2022-08-22T14:39:23.664Z,2.27
2022-08-22T14:44:30.428Z,1.50
2022-08-22T14:49:52.310Z,1.70
2022-08-22T14:55:22.359Z,1.50
2022-08-22T15:00:29.438Z,1.93
2022-08-22T15:05:45.127Z,1.97
2022-08-22T15:10:49.480Z,2.00
2022-08-22T15:15:56.015Z,1.87
2022-08-22T15:21:08.759Z,1.77
2022-08-22T15:26:21.203Z,1.80
2022-08-22T15:31:25.253Z,2.07
2022-08-22T15:36:31.213Z,1.90
2022-08-22T15:42:26.097Z,1.70
2022-08-22T15:47:36.329Z,1.93
2022-08-22T16:04:19.534Z,2.07
2022-08-22T16:09:40.662Z,2.30
2022-08-22T16:15:01.554Z,3.40
2022-08-22T16:20:53.180Z,2.30
2022-08-22T16:26:19.848Z,2.43
2022-08-22T16:31:51.791Z,2.23
2022-08-22T16:44:57.433Z,2.10
2022-08-22T16:50:57.211Z,1.70
2022-08-22T16:56:35.528Z,1.40
2022-08-22T17:02:07.039Z,3.93
2022-08-22T17:07:33.643Z,1.40
2022-08-22T17:13:15.155Z,1.37
2022-08-22T17:18:43.769Z,1.17
2022-08-22T17:23:58.142Z,1.43
2022-08-22T17:29:13.948Z,1.87
2022-08-22T17:34:32.278Z,1.20
2022-08-22T17:39:58.375Z,1.40
2022-08-22T17:45:10.872Z,1.30
2022-08-22T17:50:24.203Z,1.20
2022-08-22T17:55:33.457Z,1.40
2022-08-22T18:00:44.924Z,1.30
2022-08-22T18:05:57.977Z,1.20
2022-08-22T18:11:55.345Z,2.67
2022-08-22T18:17:01.188Z,1.43
2022-08-22T18:22:13.180Z,1.57
2022-08-22T18:27:34.248Z,1.37
2022-08-22T18:33:18.788Z,1.33
2022-08-22T18:38:58.420Z,1.40
2022-08-22T18:44:11.451Z,1.97
2022-08-22T18:49:41.971Z,2.63
2022-08-22T18:55:07.428Z,2.90
2022-08-22T19:00:17.597Z,1.60
2022-08-22T19:05:46.252Z,1.60
2022-08-22T19:11:04.324Z,1.67
2022-08-22T19:16:36.713Z,1.53
2022-08-22T19:22:22.545Z,1.90
2022-08-22T19:27:31.999Z,2.43
2022-08-22T19:33:11.611Z,1.60
2022-08-22T19:38:56.533Z,1.50
2022-08-22T19:43:59.978Z,2.37
2022-08-22T19:49:04.385Z,2.70
2022-08-22T19:54:20.418Z,1.50
2022-08-22T19:59:32.443Z,1.60
2022-08-22T20:05:01.538Z,1.53
2022-08-22T20:10:17.441Z,1.70
2022-08-22T20:15:24.651Z,2.43
2022-08-22T20:20:59.726Z,2.60
2022-08-22T20:26:05.556Z,2.17
2022-08-22T20:31:20.090Z,1.37
2022-08-22T20:36:28.735Z,1.30
2022-08-22T20:41:36.806Z,2.80
2022-08-22T20:46:54.911Z,1.50
2022-08-22T20:52:00.559Z,3.17
2022-08-22T20:57:16.095Z,1.83
2022-08-22T21:02:24.338Z,3.57
2022-08-22T21:07:29.959Z,2.83
2022-08-22T21:12:34.519Z,3.73
2022-08-22T21:17:39.590Z,2.40
2022-08-22T21:22:50.939Z,2.23
2022-08-22T21:27:55.536Z,2.17
2022-08-22T21:32:59.191Z,2.10
2022-08-22T21:38:03.165Z,1.73
2022-08-22T21:43:12.340Z,1.50
2022-08-22T21:48:38.714Z,2.83
2022-08-22T21:53:45.538Z,2.80
2022-08-22T21:58:50.081Z,4.10
2022-08-22T22:03:54.875Z,3.40
2022-08-22T22:08:58.430Z,4.00
2022-08-22T22:14:03.185Z,3.03
2022-08-22T22:19:10.154Z,3.57
2022-08-22T22:24:13.912Z,2.57
2022-08-22T22:29:18.648Z,2.20
2022-08-22T22:34:23.723Z,2.00
2022-08-22T22:39:27.074Z,3.40
2022-08-22T22:44:32.025Z,1.80
2022-08-22T22:49:37.998Z,1.73
2022-08-22T22:54:41.280Z,2.03
2022-08-22T22:59:49.847Z,2.57
2022-08-22T23:04:56.444Z,2.10
2022-08-22T23:09:59.717Z,1.90
2022-08-22T23:15:07.080Z,2.20
2022-08-22T23:20:10.868Z,1.90
2022-08-22T23:25:14.432Z,2.30
2022-08-22T23:30:19.127Z,2.20
2022-08-22T23:35:25.121Z,1.90
2022-08-22T23:40:28.338Z,1.90
2022-08-22T23:45:36.953Z,1.93
2022-08-22T23:50:42.048Z,1.50
2022-08-22T23:55:45.225Z,2.20
